GSTAR KMEM-KLAX
Flight info
| Callsign | GSTAR |
|---|---|
| Flight time | 3h 36m |
| Altitude | 34000 |
| Route | DUCKZ5 HELAR DCT KLUBB DCT TCC/N0478F360 DCT DRK DCT GABBL HLYWD1 |
| Aircraft | L101/H-SDFGHIRWXY/S |
Departure
| Time | 2026-04-24 19:34 |
|---|---|
| Airport | Memphis International Airport (KMEM) |
Arrival
| Time | 2026-04-24 23:11 |
|---|---|
| Airport | Los Angeles International Airport (KLAX) |
| Time | Latitude | Longitude | Altitude | Speed | Heading |
|---|---|---|---|---|---|
| 2026-04-24 19:11 | 35.04041 | -89.97895 | 335 ft | 0 kts | 316° |
| 2026-04-24 19:21 | 35.04028 | -89.97879 | 331 ft | 4 kts | 312° |
| 2026-04-24 19:21 | 35.04013 | -89.97854 | 330 ft | 3 kts | 283° |
| 2026-04-24 19:21 | 35.04009 | -89.97838 | 331 ft | 3 kts | 186° |
| 2026-04-24 19:21 | 35.04012 | -89.97838 | 332 ft | 8 kts | 179° |
| 2026-04-24 19:25 | 35.04009 | -89.97838 | 335 ft | 1 kts | 178° |
| 2026-04-24 19:25 | 35.03991 | -89.97837 | 332 ft | 4 kts | 178° |
| 2026-04-24 19:26 | 35.03956 | -89.97836 | 332 ft | 6 kts | 178° |
| 2026-04-24 19:26 | 35.03914 | -89.97838 | 331 ft | 6 kts | 194° |
| 2026-04-24 19:26 | 35.03887 | -89.97871 | 331 ft | 6 kts | 251° |
| 2026-04-24 19:26 | 35.03886 | -89.97928 | 333 ft | 8 kts | 271° |
| 2026-04-24 19:27 | 35.03887 | -89.98002 | 332 ft | 10 kts | 269° |
| 2026-04-24 19:27 | 35.03886 | -89.98090 | 333 ft | 11 kts | 269° |
| 2026-04-24 19:27 | 35.03885 | -89.98191 | 334 ft | 13 kts | 268° |
| 2026-04-24 19:27 | 35.03882 | -89.98302 | 331 ft | 13 kts | 269° |
| 2026-04-24 19:28 | 35.03881 | -89.98417 | 332 ft | 13 kts | 270° |
| 2026-04-24 19:28 | 35.03861 | -89.98480 | 330 ft | 7 kts | 216° |
| 2026-04-24 19:28 | 35.03807 | -89.98490 | 331 ft | 9 kts | 178° |
| 2026-04-24 19:28 | 35.03739 | -89.98488 | 333 ft | 11 kts | 178° |
| 2026-04-24 19:29 | 35.03574 | -89.98482 | 330 ft | 13 kts | 178° |
| 2026-04-24 19:29 | 35.03477 | -89.98478 | 333 ft | 15 kts | 178° |
| 2026-04-24 19:29 | 35.03380 | -89.98475 | 333 ft | 13 kts | 179° |
| 2026-04-24 19:30 | 35.03289 | -89.98474 | 333 ft | 14 kts | 179° |
| 2026-04-24 19:30 | 35.03191 | -89.98471 | 333 ft | 14 kts | 179° |
| 2026-04-24 19:30 | 35.03090 | -89.98469 | 333 ft | 15 kts | 180° |
| 2026-04-24 19:30 | 35.02986 | -89.98468 | 334 ft | 15 kts | 178° |
| 2026-04-24 19:31 | 35.02878 | -89.98464 | 333 ft | 16 kts | 179° |
| 2026-04-24 19:31 | 35.02764 | -89.98463 | 331 ft | 17 kts | 179° |
| 2026-04-24 19:31 | 35.02644 | -89.98461 | 333 ft | 18 kts | 178° |
| 2026-04-24 19:31 | 35.02540 | -89.98458 | 332 ft | 11 kts | 180° |
| 2026-04-24 19:32 | 35.02466 | -89.98456 | 330 ft | 10 kts | 178° |
| 2026-04-24 19:32 | 35.02421 | -89.98468 | 332 ft | 6 kts | 218° |
| 2026-04-24 19:32 | 35.02405 | -89.98517 | 333 ft | 7 kts | 259° |
| 2026-04-24 19:32 | 35.02401 | -89.98581 | 335 ft | 8 kts | 273° |
| 2026-04-24 19:33 | 35.02406 | -89.98642 | 335 ft | 6 kts | 280° |
| 2026-04-24 19:33 | 35.02429 | -89.98684 | 333 ft | 6 kts | 329° |
| 2026-04-24 19:33 | 35.02482 | -89.98694 | 332 ft | 14 kts | 359° |
| 2026-04-24 19:33 | 35.02848 | -89.98698 | 331 ft | 94 kts | 358° |
| 2026-04-24 19:34 | 35.03765 | -89.98725 | 352 ft | 166 kts | 358° |
| 2026-04-24 19:34 | 35.05044 | -89.98757 | 914 ft | 193 kts | 359° |
| 2026-04-24 19:34 | 35.06448 | -89.98815 | 1823 ft | 210 kts | 356° |
| 2026-04-24 19:34 | 35.07976 | -89.99115 | 2389 ft | 232 kts | 344° |
| 2026-04-24 19:35 | 35.09586 | -89.99775 | 2861 ft | 256 kts | 335° |
| 2026-04-24 19:35 | 35.11198 | -90.00732 | 3190 ft | 263 kts | 325° |
| 2026-04-24 19:35 | 35.12555 | -90.02160 | 3710 ft | 255 kts | 299° |
| 2026-04-24 19:35 | 35.13203 | -90.04103 | 4348 ft | 244 kts | 277° |
| 2026-04-24 19:36 | 35.13454 | -90.06159 | 5154 ft | 248 kts | 275° |
| 2026-04-24 19:36 | 35.13758 | -90.08253 | 5887 ft | 254 kts | 278° |
| 2026-04-24 19:36 | 35.14127 | -90.10408 | 6639 ft | 262 kts | 278° |
| 2026-04-24 19:36 | 35.14414 | -90.12612 | 7326 ft | 263 kts | 273° |
| 2026-04-24 19:37 | 35.14527 | -90.14838 | 8058 ft | 263 kts | 269° |
| 2026-04-24 19:37 | 35.14569 | -90.17078 | 8809 ft | 265 kts | 269° |
| 2026-04-24 19:37 | 35.14632 | -90.19334 | 9577 ft | 267 kts | 270° |
| 2026-04-24 19:37 | 35.14714 | -90.21607 | 10308 ft | 269 kts | 271° |
| 2026-04-24 19:38 | 35.14788 | -90.23925 | 10808 ft | 280 kts | 270° |
| 2026-04-24 19:38 | 35.14830 | -90.26390 | 10984 ft | 299 kts | 267° |
| 2026-04-24 19:38 | 35.14559 | -90.28987 | 11074 ft | 319 kts | 256° |
| 2026-04-24 19:38 | 35.13889 | -90.31638 | 11212 ft | 335 kts | 251° |
| 2026-04-24 19:39 | 35.13144 | -90.34404 | 11319 ft | 350 kts | 253° |
| 2026-04-24 19:39 | 35.12474 | -90.37313 | 11467 ft | 361 kts | 255° |
| 2026-04-24 19:39 | 35.11829 | -90.40285 | 11980 ft | 363 kts | 255° |
| 2026-04-24 19:39 | 35.11129 | -90.43255 | 12456 ft | 365 kts | 253° |
| 2026-04-24 19:40 | 35.10351 | -90.46218 | 12991 ft | 367 kts | 252° |
| 2026-04-24 19:40 | 35.09529 | -90.49186 | 13505 ft | 370 kts | 251° |
| 2026-04-24 19:40 | 35.08698 | -90.52166 | 14011 ft | 372 kts | 252° |
| 2026-04-24 19:40 | 35.07871 | -90.55171 | 14472 ft | 374 kts | 252° |
| 2026-04-24 19:41 | 35.07043 | -90.58201 | 14963 ft | 377 kts | 252° |
| 2026-04-24 19:41 | 35.06208 | -90.61248 | 15448 ft | 380 kts | 252° |
| 2026-04-24 19:41 | 35.05639 | -90.63310 | 15794 ft | 382 kts | 252° |
| 2026-04-24 19:42 | 35.04785 | -90.66394 | 16282 ft | 385 kts | 252° |
| 2026-04-24 19:42 | 35.03922 | -90.69502 | 16791 ft | 388 kts | 252° |
| 2026-04-24 19:42 | 35.03101 | -90.72652 | 17277 ft | 391 kts | 256° |
| 2026-04-24 19:42 | 35.02619 | -90.75925 | 17775 ft | 394 kts | 264° |
| 2026-04-24 19:43 | 35.02506 | -90.79265 | 18354 ft | 395 kts | 270° |
| 2026-04-24 19:43 | 35.02555 | -90.82630 | 18777 ft | 398 kts | 271° |
| 2026-04-24 19:43 | 35.02638 | -90.85975 | 19233 ft | 401 kts | 271° |
| 2026-04-24 19:43 | 35.02760 | -90.89388 | 19673 ft | 404 kts | 272° |
| 2026-04-24 19:44 | 35.02879 | -90.92827 | 20131 ft | 407 kts | 271° |
| 2026-04-24 19:44 | 35.02984 | -90.96292 | 20562 ft | 410 kts | 271° |
| 2026-04-24 19:44 | 35.03092 | -90.99780 | 21036 ft | 413 kts | 271° |
| 2026-04-24 19:44 | 35.03213 | -91.03296 | 21481 ft | 416 kts | 271° |
| 2026-04-24 19:45 | 35.03346 | -91.06840 | 21960 ft | 419 kts | 272° |
| 2026-04-24 19:45 | 35.03484 | -91.10408 | 22431 ft | 423 kts | 272° |
| 2026-04-24 19:45 | 35.03621 | -91.14005 | 22903 ft | 426 kts | 271° |
| 2026-04-24 19:45 | 35.03758 | -91.17634 | 23302 ft | 431 kts | 271° |
| 2026-04-24 19:46 | 35.03895 | -91.21303 | 23774 ft | 434 kts | 271° |
| 2026-04-24 19:46 | 35.04032 | -91.24991 | 24214 ft | 437 kts | 271° |
| 2026-04-24 19:46 | 35.04171 | -91.28703 | 24650 ft | 439 kts | 271° |
| 2026-04-24 19:46 | 35.04309 | -91.32439 | 25075 ft | 442 kts | 271° |
| 2026-04-24 19:47 | 35.04447 | -91.36228 | 25228 ft | 452 kts | 271° |
| 2026-04-24 19:47 | 35.04586 | -91.40097 | 25378 ft | 461 kts | 271° |
| 2026-04-24 19:47 | 35.04727 | -91.44047 | 25486 ft | 470 kts | 271° |
| 2026-04-24 19:47 | 35.04871 | -91.48064 | 25694 ft | 476 kts | 271° |
| 2026-04-24 19:48 | 35.05016 | -91.52090 | 26205 ft | 475 kts | 271° |
| 2026-04-24 19:48 | 35.05160 | -91.56105 | 26798 ft | 472 kts | 270° |
| 2026-04-24 19:48 | 35.05439 | -91.64096 | 27888 ft | 470 kts | 270° |
| 2026-04-24 19:49 | 35.05707 | -91.72044 | 28989 ft | 468 kts | 270° |
| 2026-04-24 19:49 | 35.05970 | -91.79964 | 30099 ft | 466 kts | 270° |
| 2026-04-24 19:50 | 35.06351 | -91.91742 | 31459 ft | 461 kts | 269° |
| 2026-04-24 19:50 | 35.06475 | -91.95631 | 31947 ft | 458 kts | 269° |
| 2026-04-24 19:51 | 35.06716 | -92.03382 | 32863 ft | 456 kts | 269° |
| 2026-04-24 19:51 | 35.06833 | -92.07241 | 33344 ft | 454 kts | 269° |
| 2026-04-24 19:52 | 35.07063 | -92.14946 | 33826 ft | 460 kts | 268° |
| 2026-04-24 19:52 | 35.07179 | -92.18852 | 33852 ft | 460 kts | 268° |
| 2026-04-24 19:52 | 35.07411 | -92.26635 | 33875 ft | 458 kts | 268° |
| 2026-04-24 19:53 | 35.07633 | -92.34397 | 33876 ft | 457 kts | 269° |
| 2026-04-24 19:54 | 35.07959 | -92.46009 | 33874 ft | 456 kts | 269° |
| 2026-04-24 19:54 | 35.08169 | -92.53741 | 33877 ft | 456 kts | 269° |
| 2026-04-24 19:55 | 35.08341 | -92.60172 | 33866 ft | 456 kts | 269° |
| 2026-04-24 19:55 | 35.08575 | -92.69217 | 33885 ft | 456 kts | 269° |
| 2026-04-24 19:56 | 35.08770 | -92.76934 | 33873 ft | 454 kts | 269° |
| 2026-04-24 19:56 | 35.08961 | -92.84637 | 33878 ft | 454 kts | 269° |
| 2026-04-24 19:57 | 35.09145 | -92.92342 | 33871 ft | 454 kts | 269° |
| 2026-04-24 19:57 | 35.09325 | -93.00044 | 33875 ft | 454 kts | 269° |
| 2026-04-24 19:58 | 35.09498 | -93.07690 | 33868 ft | 455 kts | 269° |
| 2026-04-24 19:58 | 35.09670 | -93.15438 | 33870 ft | 457 kts | 269° |
| 2026-04-24 19:59 | 35.09838 | -93.23210 | 33862 ft | 458 kts | 269° |
| 2026-04-24 19:59 | 35.10000 | -93.30979 | 33867 ft | 458 kts | 269° |
| 2026-04-24 20:00 | 35.10158 | -93.38748 | 33866 ft | 458 kts | 268° |
| 2026-04-24 20:00 | 35.10310 | -93.46518 | 33867 ft | 458 kts | 268° |
| 2026-04-24 20:01 | 35.10457 | -93.54283 | 33863 ft | 457 kts | 268° |
| 2026-04-24 20:01 | 35.10599 | -93.62053 | 33856 ft | 458 kts | 268° |
| 2026-04-24 20:02 | 35.10713 | -93.68509 | 33860 ft | 457 kts | 268° |
| 2026-04-24 20:02 | 35.10868 | -93.77589 | 33856 ft | 458 kts | 268° |
| 2026-04-24 20:03 | 35.10996 | -93.85359 | 33856 ft | 458 kts | 268° |
| 2026-04-24 20:03 | 35.11118 | -93.93164 | 33853 ft | 460 kts | 268° |
| 2026-04-24 20:04 | 35.11237 | -94.00975 | 33843 ft | 460 kts | 268° |
| 2026-04-24 20:04 | 35.11347 | -94.08789 | 33846 ft | 460 kts | 268° |
| 2026-04-24 20:05 | 35.11457 | -94.16596 | 33827 ft | 460 kts | 268° |
| 2026-04-24 20:05 | 35.11563 | -94.24412 | 33842 ft | 461 kts | 267° |
| 2026-04-24 20:06 | 35.11619 | -94.28816 | 33833 ft | 461 kts | 267° |
| 2026-04-24 20:06 | 35.11712 | -94.36595 | 33826 ft | 461 kts | 267° |
| 2026-04-24 20:07 | 35.11787 | -94.43153 | 33828 ft | 461 kts | 267° |
| 2026-04-24 20:07 | 35.11887 | -94.52255 | 33827 ft | 461 kts | 267° |
| 2026-04-24 20:08 | 35.11967 | -94.60085 | 33838 ft | 461 kts | 268° |
| 2026-04-24 20:08 | 35.12042 | -94.67924 | 33826 ft | 462 kts | 268° |
| 2026-04-24 20:09 | 35.12115 | -94.75770 | 33824 ft | 462 kts | 268° |
| 2026-04-24 20:09 | 35.12181 | -94.83621 | 33822 ft | 462 kts | 267° |
| 2026-04-24 20:10 | 35.12241 | -94.91468 | 33825 ft | 462 kts | 267° |
| 2026-04-24 20:10 | 35.12294 | -94.99314 | 33833 ft | 462 kts | 268° |
| 2026-04-24 20:11 | 35.12345 | -95.07139 | 33828 ft | 460 kts | 268° |
| 2026-04-24 20:11 | 35.12391 | -95.14952 | 33822 ft | 460 kts | 268° |
| 2026-04-24 20:12 | 35.12433 | -95.22769 | 33826 ft | 460 kts | 268° |
| 2026-04-24 20:12 | 35.12462 | -95.29262 | 33828 ft | 460 kts | 268° |
| 2026-04-24 20:13 | 35.12489 | -95.37067 | 33841 ft | 458 kts | 268° |
| 2026-04-24 20:13 | 35.12518 | -95.44764 | 33820 ft | 450 kts | 268° |
| 2026-04-24 20:14 | 35.12694 | -95.52396 | 33832 ft | 449 kts | 268° |
| 2026-04-24 20:14 | 35.12764 | -95.60039 | 33832 ft | 451 kts | 268° |
| 2026-04-24 20:15 | 35.12973 | -95.67696 | 33811 ft | 451 kts | 270° |
| 2026-04-24 20:15 | 35.13263 | -95.75351 | 33804 ft | 450 kts | 270° |
| 2026-04-24 20:16 | 35.13553 | -95.82945 | 33804 ft | 446 kts | 270° |
| 2026-04-24 20:16 | 35.13841 | -95.90497 | 33809 ft | 446 kts | 270° |
| 2026-04-24 20:17 | 35.14128 | -95.98066 | 33810 ft | 446 kts | 270° |
| 2026-04-24 20:17 | 35.14551 | -96.09412 | 33842 ft | 445 kts | 271° |
| 2026-04-24 20:18 | 35.14825 | -96.16955 | 33821 ft | 443 kts | 271° |
| 2026-04-24 20:18 | 35.15097 | -96.24458 | 33819 ft | 442 kts | 271° |
| 2026-04-24 20:19 | 35.15361 | -96.31964 | 33803 ft | 442 kts | 271° |
| 2026-04-24 20:19 | 35.15620 | -96.39474 | 33787 ft | 443 kts | 271° |
| 2026-04-24 20:20 | 35.15877 | -96.46987 | 33813 ft | 443 kts | 271° |
| 2026-04-24 20:20 | 35.16129 | -96.54486 | 33791 ft | 440 kts | 271° |
| 2026-04-24 20:21 | 35.16372 | -96.61903 | 33793 ft | 439 kts | 271° |
| 2026-04-24 20:21 | 35.16612 | -96.69358 | 33797 ft | 439 kts | 271° |
| 2026-04-24 20:22 | 35.16847 | -96.76823 | 33789 ft | 440 kts | 271° |
| 2026-04-24 20:22 | 35.17079 | -96.84290 | 33791 ft | 439 kts | 271° |
| 2026-04-24 20:23 | 35.17305 | -96.91729 | 33790 ft | 435 kts | 271° |
| 2026-04-24 20:23 | 35.17524 | -96.99095 | 33789 ft | 433 kts | 271° |
| 2026-04-24 20:24 | 35.17737 | -97.06449 | 33792 ft | 433 kts | 271° |
| 2026-04-24 20:24 | 35.17947 | -97.13810 | 33786 ft | 433 kts | 271° |
| 2026-04-24 20:25 | 35.18153 | -97.21175 | 33791 ft | 433 kts | 271° |
| 2026-04-24 20:25 | 35.18354 | -97.28537 | 33796 ft | 433 kts | 271° |
| 2026-04-24 20:26 | 35.18550 | -97.35892 | 33789 ft | 433 kts | 271° |
| 2026-04-24 20:26 | 35.18742 | -97.43249 | 33797 ft | 433 kts | 271° |
| 2026-04-24 20:27 | 35.18930 | -97.50610 | 33800 ft | 433 kts | 271° |
| 2026-04-24 20:27 | 35.19113 | -97.57969 | 33800 ft | 433 kts | 271° |
| 2026-04-24 20:28 | 35.19290 | -97.65306 | 33790 ft | 430 kts | 271° |
| 2026-04-24 20:28 | 35.19463 | -97.72579 | 33799 ft | 427 kts | 271° |
| 2026-04-24 20:29 | 35.19629 | -97.79835 | 33791 ft | 427 kts | 271° |
| 2026-04-24 20:29 | 35.19792 | -97.87100 | 33788 ft | 427 kts | 271° |
| 2026-04-24 20:30 | 35.19950 | -97.94365 | 33788 ft | 428 kts | 271° |
| 2026-04-24 20:30 | 35.20102 | -98.01620 | 33789 ft | 426 kts | 271° |
| 2026-04-24 20:31 | 35.20253 | -98.08829 | 33795 ft | 423 kts | 271° |
| 2026-04-24 20:31 | 35.20397 | -98.15972 | 33789 ft | 423 kts | 271° |
| 2026-04-24 20:32 | 35.20537 | -98.23166 | 33784 ft | 423 kts | 271° |
| 2026-04-24 20:32 | 35.20673 | -98.30360 | 33773 ft | 423 kts | 271° |
| 2026-04-24 20:33 | 35.20804 | -98.37544 | 33788 ft | 422 kts | 271° |
| 2026-04-24 20:33 | 35.20931 | -98.44685 | 33778 ft | 419 kts | 271° |
| 2026-04-24 20:34 | 35.21051 | -98.51810 | 33772 ft | 419 kts | 271° |
| 2026-04-24 20:34 | 35.21168 | -98.58947 | 33781 ft | 420 kts | 271° |
| 2026-04-24 20:35 | 35.21283 | -98.66094 | 33783 ft | 420 kts | 271° |
| 2026-04-24 20:35 | 35.21393 | -98.73235 | 33794 ft | 420 kts | 271° |
| 2026-04-24 20:36 | 35.21498 | -98.80341 | 33777 ft | 417 kts | 271° |
| 2026-04-24 20:36 | 35.21597 | -98.87420 | 33793 ft | 415 kts | 271° |
| 2026-04-24 20:37 | 35.21692 | -98.94491 | 33793 ft | 416 kts | 271° |
| 2026-04-24 20:37 | 35.21784 | -99.01559 | 33815 ft | 416 kts | 271° |
| 2026-04-24 20:38 | 35.21872 | -99.08632 | 33810 ft | 416 kts | 271° |
| 2026-04-24 20:38 | 35.21956 | -99.15640 | 33828 ft | 414 kts | 271° |
| 2026-04-24 20:39 | 35.22035 | -99.22671 | 33835 ft | 413 kts | 271° |
| 2026-04-24 20:39 | 35.22108 | -99.29690 | 33811 ft | 413 kts | 271° |
| 2026-04-24 20:40 | 35.22178 | -99.36709 | 33821 ft | 413 kts | 271° |
| 2026-04-24 20:40 | 35.22287 | -99.43734 | 33783 ft | 413 kts | 272° |
| 2026-04-24 20:41 | 35.22486 | -99.50742 | 33782 ft | 412 kts | 271° |
| 2026-04-24 20:41 | 35.22534 | -99.57724 | 33795 ft | 410 kts | 270° |
| 2026-04-24 20:42 | 35.22508 | -99.64706 | 33796 ft | 410 kts | 270° |
| 2026-04-24 20:42 | 35.22542 | -99.71680 | 33774 ft | 410 kts | 271° |
| 2026-04-24 20:43 | 35.22616 | -99.78650 | 33770 ft | 410 kts | 271° |
| 2026-04-24 20:43 | 35.22697 | -99.85619 | 33772 ft | 410 kts | 271° |
| 2026-04-24 20:44 | 35.22749 | -99.92571 | 33770 ft | 408 kts | 271° |
| 2026-04-24 20:44 | 35.22782 | -99.99504 | 33787 ft | 407 kts | 270° |
| 2026-04-24 20:45 | 35.22779 | -100.06434 | 33772 ft | 408 kts | 271° |
| 2026-04-24 20:45 | 35.22767 | -100.13366 | 33789 ft | 407 kts | 270° |
| 2026-04-24 20:46 | 35.22772 | -100.20294 | 33767 ft | 408 kts | 271° |
| 2026-04-24 20:46 | 35.22800 | -100.27213 | 33774 ft | 405 kts | 270° |
| 2026-04-24 20:47 | 35.22802 | -100.34095 | 33773 ft | 405 kts | 271° |
| 2026-04-24 20:47 | 35.22823 | -100.40975 | 33776 ft | 405 kts | 271° |
| 2026-04-24 20:48 | 35.22850 | -100.47809 | 33775 ft | 405 kts | 271° |
| 2026-04-24 20:48 | 35.22904 | -100.54690 | 33777 ft | 404 kts | 271° |
| 2026-04-24 20:49 | 35.22946 | -100.61566 | 33778 ft | 403 kts | 271° |
| 2026-04-24 20:49 | 35.22921 | -100.68400 | 33776 ft | 401 kts | 270° |
| 2026-04-24 20:50 | 35.22924 | -100.75212 | 33781 ft | 401 kts | 271° |
| 2026-04-24 20:50 | 35.22837 | -100.82028 | 33779 ft | 400 kts | 270° |
| 2026-04-24 20:51 | 35.22843 | -100.88835 | 33781 ft | 400 kts | 271° |
| 2026-04-24 20:51 | 35.22874 | -100.95645 | 33776 ft | 400 kts | 270° |
| 2026-04-24 20:52 | 35.22826 | -101.02454 | 33778 ft | 400 kts | 271° |
| 2026-04-24 20:52 | 35.22760 | -101.09265 | 33777 ft | 401 kts | 269° |
| 2026-04-24 20:53 | 35.22667 | -101.16074 | 33776 ft | 400 kts | 271° |
| 2026-04-24 20:53 | 35.22803 | -101.22882 | 33776 ft | 400 kts | 271° |
| 2026-04-24 20:54 | 35.22817 | -101.29701 | 33794 ft | 402 kts | 270° |
| 2026-04-24 20:54 | 35.22764 | -101.36541 | 33817 ft | 402 kts | 270° |
| 2026-04-24 20:55 | 35.22723 | -101.43369 | 33841 ft | 401 kts | 270° |
| 2026-04-24 20:55 | 35.22627 | -101.50191 | 33860 ft | 401 kts | 270° |
| 2026-04-24 20:56 | 35.22572 | -101.57008 | 33896 ft | 401 kts | 270° |
| 2026-04-24 20:56 | 35.22457 | -101.63827 | 33903 ft | 401 kts | 269° |
| 2026-04-24 20:57 | 35.22258 | -101.70645 | 33887 ft | 401 kts | 269° |
| 2026-04-24 20:57 | 35.22162 | -101.77439 | 33895 ft | 399 kts | 270° |
| 2026-04-24 20:58 | 35.22085 | -101.84217 | 33883 ft | 399 kts | 270° |
| 2026-04-24 20:58 | 35.22005 | -101.90993 | 33869 ft | 398 kts | 270° |
| 2026-04-24 20:59 | 35.21939 | -101.96622 | 33841 ft | 398 kts | 270° |
| 2026-04-24 20:59 | 35.21858 | -102.03392 | 33815 ft | 398 kts | 270° |
| 2026-04-24 21:00 | 35.21773 | -102.10165 | 33795 ft | 398 kts | 270° |
| 2026-04-24 21:00 | 35.21686 | -102.16941 | 33785 ft | 398 kts | 270° |
| 2026-04-24 21:01 | 35.21594 | -102.23713 | 33781 ft | 398 kts | 270° |
| 2026-04-24 21:01 | 35.21499 | -102.30482 | 33787 ft | 398 kts | 270° |
| 2026-04-24 21:02 | 35.21399 | -102.37253 | 33785 ft | 398 kts | 270° |
| 2026-04-24 21:02 | 35.21298 | -102.44022 | 33790 ft | 398 kts | 270° |
| 2026-04-24 21:03 | 35.21192 | -102.50773 | 33785 ft | 397 kts | 270° |
| 2026-04-24 21:03 | 35.21080 | -102.57516 | 33790 ft | 396 kts | 270° |
| 2026-04-24 21:04 | 35.20968 | -102.64254 | 33795 ft | 396 kts | 270° |
| 2026-04-24 21:04 | 35.20861 | -102.70951 | 33788 ft | 397 kts | 270° |
| 2026-04-24 21:05 | 35.20784 | -102.77691 | 33782 ft | 396 kts | 270° |
| 2026-04-24 21:05 | 35.20635 | -102.84429 | 33783 ft | 397 kts | 269° |
| 2026-04-24 21:06 | 35.20476 | -102.91170 | 33790 ft | 396 kts | 269° |
| 2026-04-24 21:06 | 35.20343 | -102.97905 | 33772 ft | 396 kts | 269° |
| 2026-04-24 21:07 | 35.20206 | -103.04643 | 33776 ft | 396 kts | 269° |
| 2026-04-24 21:07 | 35.20065 | -103.11376 | 33758 ft | 396 kts | 269° |
| 2026-04-24 21:08 | 35.19922 | -103.18108 | 33753 ft | 396 kts | 269° |
| 2026-04-24 21:08 | 35.19774 | -103.24847 | 33783 ft | 396 kts | 269° |
| 2026-04-24 21:09 | 35.19625 | -103.31584 | 33786 ft | 397 kts | 269° |
| 2026-04-24 21:09 | 35.19473 | -103.38322 | 33800 ft | 397 kts | 269° |
| 2026-04-24 21:10 | 35.19327 | -103.45064 | 33833 ft | 396 kts | 270° |
| 2026-04-24 21:10 | 35.19200 | -103.51799 | 33838 ft | 396 kts | 269° |
| 2026-04-24 21:11 | 35.19043 | -103.58533 | 33845 ft | 396 kts | 269° |
| 2026-04-24 21:11 | 35.18837 | -103.65261 | 33846 ft | 396 kts | 266° |
| 2026-04-24 21:12 | 35.18289 | -103.71964 | 33840 ft | 396 kts | 266° |
| 2026-04-24 21:12 | 35.18027 | -103.78686 | 33807 ft | 396 kts | 269° |
| 2026-04-24 21:13 | 35.17883 | -103.85413 | 33774 ft | 396 kts | 269° |
| 2026-04-24 21:13 | 35.17735 | -103.92143 | 33755 ft | 396 kts | 270° |
| 2026-04-24 21:14 | 35.17655 | -103.98818 | 33723 ft | 396 kts | 269° |
| 2026-04-24 21:14 | 35.17459 | -104.05540 | 33698 ft | 396 kts | 269° |
| 2026-04-24 21:15 | 35.17331 | -104.12266 | 33692 ft | 396 kts | 270° |
| 2026-04-24 21:15 | 35.17224 | -104.18985 | 33697 ft | 395 kts | 269° |
| 2026-04-24 21:16 | 35.17023 | -104.25745 | 33683 ft | 396 kts | 269° |
| 2026-04-24 21:16 | 35.16864 | -104.32427 | 33690 ft | 395 kts | 269° |
| 2026-04-24 21:17 | 35.16711 | -104.39145 | 33677 ft | 395 kts | 269° |
| 2026-04-24 21:17 | 35.16551 | -104.45863 | 33688 ft | 395 kts | 269° |
| 2026-04-24 21:18 | 35.16387 | -104.52580 | 33687 ft | 396 kts | 269° |
| 2026-04-24 21:18 | 35.16227 | -104.59301 | 33677 ft | 396 kts | 269° |
| 2026-04-24 21:19 | 35.16081 | -104.66030 | 33691 ft | 396 kts | 269° |
| 2026-04-24 21:19 | 35.15921 | -104.72746 | 33698 ft | 395 kts | 269° |
| 2026-04-24 21:20 | 35.15641 | -104.82823 | 33768 ft | 396 kts | 269° |
| 2026-04-24 21:21 | 35.15465 | -104.89544 | 33731 ft | 396 kts | 269° |
| 2026-04-24 21:21 | 35.15258 | -104.96265 | 33725 ft | 395 kts | 269° |
| 2026-04-24 21:22 | 35.15082 | -105.02986 | 33711 ft | 396 kts | 269° |
| 2026-04-24 21:22 | 35.14908 | -105.09708 | 33738 ft | 396 kts | 269° |
| 2026-04-24 21:23 | 35.14704 | -105.16424 | 33742 ft | 396 kts | 269° |
| 2026-04-24 21:23 | 35.14496 | -105.23143 | 33759 ft | 396 kts | 269° |
| 2026-04-24 21:24 | 35.14279 | -105.29866 | 33763 ft | 396 kts | 269° |
| 2026-04-24 21:24 | 35.14071 | -105.36538 | 33787 ft | 396 kts | 269° |
| 2026-04-24 21:25 | 35.13856 | -105.43259 | 33792 ft | 396 kts | 269° |
| 2026-04-24 21:25 | 35.13640 | -105.49970 | 33786 ft | 395 kts | 269° |
| 2026-04-24 21:26 | 35.13421 | -105.56678 | 33813 ft | 395 kts | 269° |
| 2026-04-24 21:26 | 35.13199 | -105.63400 | 33819 ft | 395 kts | 269° |
| 2026-04-24 21:27 | 35.12974 | -105.70116 | 33826 ft | 397 kts | 269° |
| 2026-04-24 21:27 | 35.12746 | -105.76855 | 33827 ft | 397 kts | 269° |
| 2026-04-24 21:28 | 35.12513 | -105.83594 | 33837 ft | 397 kts | 269° |
| 2026-04-24 21:28 | 35.12276 | -105.90332 | 33830 ft | 397 kts | 269° |
| 2026-04-24 21:29 | 35.12035 | -105.97069 | 33835 ft | 397 kts | 268° |
| 2026-04-24 21:29 | 35.11791 | -106.03809 | 33838 ft | 398 kts | 268° |
| 2026-04-24 21:30 | 35.11541 | -106.10590 | 33828 ft | 401 kts | 268° |
| 2026-04-24 21:30 | 35.11287 | -106.17385 | 33832 ft | 400 kts | 268° |
| 2026-04-24 21:31 | 35.11030 | -106.24175 | 33839 ft | 400 kts | 268° |
| 2026-04-24 21:31 | 35.10767 | -106.30965 | 33863 ft | 401 kts | 268° |
| 2026-04-24 21:32 | 35.10501 | -106.37759 | 33887 ft | 400 kts | 268° |
| 2026-04-24 21:32 | 35.10232 | -106.44541 | 33908 ft | 400 kts | 268° |
| 2026-04-24 21:33 | 35.09962 | -106.51255 | 33933 ft | 398 kts | 268° |
| 2026-04-24 21:33 | 35.09685 | -106.58011 | 33950 ft | 398 kts | 268° |
| 2026-04-24 21:34 | 35.09406 | -106.64756 | 33943 ft | 397 kts | 268° |
| 2026-04-24 21:34 | 35.09124 | -106.71489 | 33976 ft | 397 kts | 268° |
| 2026-04-24 21:35 | 35.08839 | -106.78205 | 33956 ft | 395 kts | 268° |
| 2026-04-24 21:35 | 35.08550 | -106.84905 | 33956 ft | 395 kts | 268° |
| 2026-04-24 21:35 | 35.08405 | -106.88252 | 33740 ft | 395 kts | 268° |
| 2026-04-24 21:36 | 35.08258 | -106.91600 | 33740 ft | 395 kts | 268° |
| 2026-04-24 21:36 | 35.07964 | -106.98297 | 33739 ft | 395 kts | 268° |
| 2026-04-24 21:37 | 35.07666 | -107.04981 | 33728 ft | 395 kts | 268° |
| 2026-04-24 21:37 | 35.07364 | -107.11683 | 33733 ft | 396 kts | 267° |
| 2026-04-24 21:38 | 35.07059 | -107.18402 | 33737 ft | 397 kts | 268° |
| 2026-04-24 21:38 | 35.06763 | -107.25128 | 33744 ft | 397 kts | 267° |
| 2026-04-24 21:39 | 35.06503 | -107.31849 | 33743 ft | 396 kts | 268° |
| 2026-04-24 21:39 | 35.06267 | -107.38571 | 33755 ft | 397 kts | 268° |
| 2026-04-24 21:40 | 35.05910 | -107.45294 | 33757 ft | 398 kts | 266° |
| 2026-04-24 21:40 | 35.05622 | -107.52033 | 33758 ft | 397 kts | 267° |
| 2026-04-24 21:41 | 35.05326 | -107.58722 | 33766 ft | 397 kts | 267° |
| 2026-04-24 21:41 | 35.04991 | -107.65456 | 33769 ft | 398 kts | 267° |
| 2026-04-24 21:42 | 35.04654 | -107.72198 | 33771 ft | 398 kts | 267° |
| 2026-04-24 21:42 | 35.04340 | -107.78941 | 33767 ft | 398 kts | 267° |
| 2026-04-24 21:43 | 35.04004 | -107.85700 | 33771 ft | 399 kts | 266° |
| 2026-04-24 21:43 | 35.03643 | -107.92465 | 33775 ft | 399 kts | 266° |
| 2026-04-24 21:44 | 35.03302 | -107.99228 | 33772 ft | 400 kts | 266° |
| 2026-04-24 21:44 | 35.02946 | -108.06000 | 33777 ft | 400 kts | 266° |
| 2026-04-24 21:45 | 35.02574 | -108.12773 | 33776 ft | 400 kts | 266° |
| 2026-04-24 21:45 | 35.02210 | -108.19548 | 33773 ft | 400 kts | 266° |
| 2026-04-24 21:46 | 35.01846 | -108.26321 | 33773 ft | 400 kts | 266° |
| 2026-04-24 21:46 | 35.01474 | -108.33091 | 33770 ft | 400 kts | 266° |
| 2026-04-24 21:47 | 35.01096 | -108.39866 | 33776 ft | 400 kts | 266° |
| 2026-04-24 21:47 | 35.00791 | -108.45493 | 33774 ft | 400 kts | 266° |
| 2026-04-24 21:48 | 35.00414 | -108.52260 | 33761 ft | 400 kts | 266° |
| 2026-04-24 21:48 | 35.00020 | -108.59025 | 33768 ft | 400 kts | 266° |
| 2026-04-24 21:49 | 34.99623 | -108.65793 | 33760 ft | 400 kts | 266° |
| 2026-04-24 21:49 | 34.99230 | -108.72563 | 33764 ft | 400 kts | 266° |
| 2026-04-24 21:50 | 34.98832 | -108.79331 | 33745 ft | 400 kts | 266° |
| 2026-04-24 21:50 | 34.98432 | -108.86112 | 33758 ft | 402 kts | 266° |
| 2026-04-24 21:51 | 34.98032 | -108.92920 | 33741 ft | 403 kts | 266° |
| 2026-04-24 21:51 | 34.97608 | -108.99726 | 33749 ft | 402 kts | 265° |
| 2026-04-24 21:52 | 34.97184 | -109.06520 | 33769 ft | 402 kts | 266° |
| 2026-04-24 21:52 | 34.96764 | -109.13294 | 33733 ft | 400 kts | 265° |
| 2026-04-24 21:53 | 34.96332 | -109.20054 | 33743 ft | 400 kts | 265° |
| 2026-04-24 21:53 | 34.95894 | -109.26775 | 33747 ft | 400 kts | 265° |
| 2026-04-24 21:54 | 34.95481 | -109.33551 | 33740 ft | 401 kts | 265° |
| 2026-04-24 21:54 | 34.95038 | -109.40316 | 33746 ft | 400 kts | 265° |
| 2026-04-24 21:55 | 34.94590 | -109.47083 | 33735 ft | 401 kts | 265° |
| 2026-04-24 21:55 | 34.94145 | -109.53857 | 33741 ft | 401 kts | 265° |
| 2026-04-24 21:56 | 34.93671 | -109.60634 | 33741 ft | 401 kts | 264° |
| 2026-04-24 21:56 | 34.93170 | -109.67403 | 33740 ft | 401 kts | 264° |
| 2026-04-24 21:57 | 34.92647 | -109.74174 | 33747 ft | 401 kts | 264° |
| 2026-04-24 21:57 | 34.92140 | -109.80954 | 33757 ft | 401 kts | 265° |
| 2026-04-24 21:58 | 34.91670 | -109.87711 | 33741 ft | 399 kts | 265° |
| 2026-04-24 21:58 | 34.91202 | -109.94442 | 33743 ft | 399 kts | 265° |
| 2026-04-24 21:59 | 34.90730 | -110.01176 | 33745 ft | 399 kts | 265° |
| 2026-04-24 21:59 | 34.90259 | -110.07906 | 33751 ft | 399 kts | 265° |
| 2026-04-24 22:00 | 34.89785 | -110.14638 | 33758 ft | 399 kts | 264° |
| 2026-04-24 22:00 | 34.89309 | -110.21353 | 33765 ft | 397 kts | 264° |
| 2026-04-24 22:01 | 34.88828 | -110.28052 | 33765 ft | 397 kts | 264° |
| 2026-04-24 22:01 | 34.88345 | -110.34747 | 33772 ft | 397 kts | 264° |
| 2026-04-24 22:02 | 34.87859 | -110.41445 | 33769 ft | 397 kts | 264° |
| 2026-04-24 22:02 | 34.87370 | -110.48138 | 33770 ft | 397 kts | 264° |
| 2026-04-24 22:03 | 34.86880 | -110.54792 | 33770 ft | 398 kts | 264° |
| 2026-04-24 22:03 | 34.86383 | -110.61507 | 33788 ft | 398 kts | 264° |
| 2026-04-24 22:03 | 34.86133 | -110.64860 | 33890 ft | 398 kts | 264° |
| 2026-04-24 22:04 | 34.85881 | -110.68218 | 33889 ft | 398 kts | 264° |
| 2026-04-24 22:04 | 34.85375 | -110.74931 | 33889 ft | 398 kts | 264° |
| 2026-04-24 22:05 | 34.84867 | -110.81637 | 33860 ft | 398 kts | 264° |
| 2026-04-24 22:05 | 34.84354 | -110.88349 | 33865 ft | 399 kts | 264° |
| 2026-04-24 22:06 | 34.83837 | -110.95071 | 33848 ft | 399 kts | 264° |
| 2026-04-24 22:06 | 34.83316 | -111.01786 | 33848 ft | 399 kts | 264° |
| 2026-04-24 22:07 | 34.82791 | -111.08503 | 33835 ft | 399 kts | 264° |
| 2026-04-24 22:07 | 34.82263 | -111.15213 | 33861 ft | 398 kts | 264° |
| 2026-04-24 22:08 | 34.81733 | -111.21898 | 33856 ft | 395 kts | 264° |
| 2026-04-24 22:08 | 34.81200 | -111.28539 | 33848 ft | 395 kts | 264° |
| 2026-04-24 22:09 | 34.80662 | -111.35179 | 33860 ft | 394 kts | 264° |
| 2026-04-24 22:09 | 34.80126 | -111.41821 | 33842 ft | 395 kts | 264° |
| 2026-04-24 22:10 | 34.79589 | -111.48420 | 33849 ft | 394 kts | 264° |
| 2026-04-24 22:10 | 34.79039 | -111.55106 | 33840 ft | 395 kts | 264° |
| 2026-04-24 22:11 | 34.78494 | -111.61709 | 33910 ft | 395 kts | 264° |
| 2026-04-24 22:11 | 34.77942 | -111.68354 | 33938 ft | 395 kts | 264° |
| 2026-04-24 22:12 | 34.77390 | -111.74994 | 33940 ft | 395 kts | 264° |
| 2026-04-24 22:12 | 34.76837 | -111.81638 | 33961 ft | 395 kts | 264° |
| 2026-04-24 22:13 | 34.76285 | -111.88267 | 33938 ft | 393 kts | 263° |
| 2026-04-24 22:13 | 34.75703 | -111.94865 | 33911 ft | 392 kts | 263° |
| 2026-04-24 22:14 | 34.75132 | -112.01469 | 33889 ft | 392 kts | 263° |
| 2026-04-24 22:14 | 34.74562 | -112.08067 | 33855 ft | 393 kts | 264° |
| 2026-04-24 22:15 | 34.73988 | -112.14647 | 33893 ft | 390 kts | 264° |
| 2026-04-24 22:15 | 34.73410 | -112.21228 | 33923 ft | 392 kts | 263° |
| 2026-04-24 22:16 | 34.72832 | -112.27815 | 33946 ft | 392 kts | 263° |
| 2026-04-24 22:16 | 34.72248 | -112.34396 | 33981 ft | 391 kts | 263° |
| 2026-04-24 22:17 | 34.71661 | -112.40973 | 33974 ft | 392 kts | 263° |
| 2026-04-24 22:17 | 34.71108 | -112.47562 | 33969 ft | 392 kts | 264° |
| 2026-04-24 22:17 | 34.70806 | -112.50854 | 33804 ft | 393 kts | 261° |
| 2026-04-24 22:18 | 34.70271 | -112.54110 | 33816 ft | 393 kts | 257° |
| 2026-04-24 22:18 | 34.69055 | -112.60591 | 33812 ft | 394 kts | 260° |
| 2026-04-24 22:19 | 34.68207 | -112.67158 | 33807 ft | 394 kts | 262° |
| 2026-04-24 22:19 | 34.67447 | -112.73739 | 33813 ft | 393 kts | 262° |
| 2026-04-24 22:20 | 34.66678 | -112.80321 | 33802 ft | 394 kts | 262° |
| 2026-04-24 22:20 | 34.65924 | -112.86870 | 33808 ft | 394 kts | 262° |
| 2026-04-24 22:21 | 34.65164 | -112.93502 | 33801 ft | 394 kts | 262° |
| 2026-04-24 22:21 | 34.64403 | -113.00095 | 33803 ft | 394 kts | 262° |
| 2026-04-24 22:22 | 34.63638 | -113.06689 | 33809 ft | 395 kts | 262° |
| 2026-04-24 22:22 | 34.62876 | -113.13237 | 33800 ft | 394 kts | 261° |
| 2026-04-24 22:23 | 34.62106 | -113.19819 | 33808 ft | 393 kts | 261° |
| 2026-04-24 22:23 | 34.61334 | -113.26400 | 33791 ft | 394 kts | 261° |
| 2026-04-24 22:24 | 34.60562 | -113.32974 | 33806 ft | 394 kts | 261° |
| 2026-04-24 22:24 | 34.59784 | -113.39557 | 33781 ft | 395 kts | 261° |
| 2026-04-24 22:25 | 34.58996 | -113.46147 | 33791 ft | 395 kts | 261° |
| 2026-04-24 22:25 | 34.58206 | -113.52740 | 33783 ft | 395 kts | 261° |
| 2026-04-24 22:26 | 34.57414 | -113.59326 | 33787 ft | 394 kts | 261° |
| 2026-04-24 22:26 | 34.56618 | -113.65913 | 33783 ft | 394 kts | 261° |
| 2026-04-24 22:27 | 34.55819 | -113.72495 | 33770 ft | 394 kts | 261° |
| 2026-04-24 22:27 | 34.55018 | -113.79071 | 33768 ft | 394 kts | 261° |
| 2026-04-24 22:28 | 34.54214 | -113.85641 | 33767 ft | 394 kts | 261° |
| 2026-04-24 22:28 | 34.53406 | -113.92206 | 33760 ft | 393 kts | 261° |
| 2026-04-24 22:29 | 34.52188 | -114.02042 | 33768 ft | 393 kts | 260° |
| 2026-04-24 22:29 | 34.51049 | -114.08520 | 33769 ft | 393 kts | 255° |
| 2026-04-24 22:30 | 34.49631 | -114.14917 | 33781 ft | 393 kts | 256° |
| 2026-04-24 22:30 | 34.48292 | -114.21338 | 33783 ft | 393 kts | 256° |
| 2026-04-24 22:31 | 34.46945 | -114.27755 | 33790 ft | 393 kts | 256° |
| 2026-04-24 22:31 | 34.45584 | -114.34167 | 33789 ft | 393 kts | 256° |
| 2026-04-24 22:32 | 34.44231 | -114.40537 | 33773 ft | 393 kts | 256° |
| 2026-04-24 22:32 | 34.42867 | -114.46942 | 33764 ft | 393 kts | 256° |
| 2026-04-24 22:33 | 34.41499 | -114.53343 | 33771 ft | 393 kts | 256° |
| 2026-04-24 22:33 | 34.40128 | -114.59742 | 33768 ft | 393 kts | 256° |
| 2026-04-24 22:34 | 34.38754 | -114.66138 | 33777 ft | 392 kts | 256° |
| 2026-04-24 22:34 | 34.37376 | -114.72534 | 33771 ft | 393 kts | 256° |
| 2026-04-24 22:35 | 34.35995 | -114.78928 | 33785 ft | 392 kts | 256° |
| 2026-04-24 22:35 | 34.34613 | -114.85315 | 33786 ft | 392 kts | 255° |
| 2026-04-24 22:36 | 34.33459 | -114.90616 | 33779 ft | 392 kts | 255° |
| 2026-04-24 22:36 | 34.32047 | -114.96991 | 33789 ft | 393 kts | 255° |
| 2026-04-24 22:37 | 34.30617 | -115.03373 | 33679 ft | 395 kts | 255° |
| 2026-04-24 22:37 | 34.29911 | -115.06560 | 33541 ft | 389 kts | 255° |
| 2026-04-24 22:37 | 34.29220 | -115.09696 | 33401 ft | 384 kts | 256° |
| 2026-04-24 22:38 | 34.28536 | -115.12806 | 33275 ft | 382 kts | 256° |
| 2026-04-24 22:38 | 34.27853 | -115.15909 | 33138 ft | 383 kts | 256° |
| 2026-04-24 22:38 | 34.27167 | -115.19024 | 33005 ft | 384 kts | 255° |
| 2026-04-24 22:38 | 34.26484 | -115.22149 | 32875 ft | 385 kts | 256° |
| 2026-04-24 22:39 | 34.25812 | -115.25280 | 32734 ft | 386 kts | 256° |
| 2026-04-24 22:39 | 34.25141 | -115.28424 | 32611 ft | 386 kts | 256° |
| 2026-04-24 22:39 | 34.24468 | -115.31572 | 32474 ft | 388 kts | 256° |
| 2026-04-24 22:39 | 34.23793 | -115.34729 | 32313 ft | 389 kts | 256° |
| 2026-04-24 22:40 | 34.23126 | -115.37854 | 32194 ft | 390 kts | 256° |
| 2026-04-24 22:40 | 34.22437 | -115.41080 | 32061 ft | 392 kts | 256° |
| 2026-04-24 22:40 | 34.21765 | -115.44229 | 31920 ft | 394 kts | 256° |
| 2026-04-24 22:40 | 34.21081 | -115.47432 | 31820 ft | 393 kts | 256° |
| 2026-04-24 22:41 | 34.19692 | -115.53900 | 31796 ft | 407 kts | 256° |
| 2026-04-24 22:41 | 34.18262 | -115.60581 | 31780 ft | 412 kts | 256° |
| 2026-04-24 22:42 | 34.16849 | -115.67299 | 31772 ft | 413 kts | 258° |
| 2026-04-24 22:42 | 34.16036 | -115.74152 | 31808 ft | 412 kts | 263° |
| 2026-04-24 22:43 | 34.15358 | -115.81017 | 31816 ft | 411 kts | 262° |
| 2026-04-24 22:43 | 34.14639 | -115.87867 | 31818 ft | 411 kts | 262° |
| 2026-04-24 22:44 | 34.13967 | -115.94717 | 31847 ft | 412 kts | 262° |
| 2026-04-24 22:44 | 34.13300 | -116.01578 | 31866 ft | 407 kts | 262° |
| 2026-04-24 22:45 | 34.12973 | -116.04892 | 31782 ft | 389 kts | 262° |
| 2026-04-24 22:45 | 34.12652 | -116.08108 | 31315 ft | 383 kts | 262° |
| 2026-04-24 22:45 | 34.12336 | -116.11268 | 30884 ft | 377 kts | 262° |
| 2026-04-24 22:45 | 34.12024 | -116.14394 | 30447 ft | 374 kts | 262° |
| 2026-04-24 22:46 | 34.11715 | -116.17500 | 30024 ft | 372 kts | 262° |
| 2026-04-24 22:46 | 34.11410 | -116.20600 | 29537 ft | 372 kts | 262° |
| 2026-04-24 22:46 | 34.11106 | -116.23688 | 29027 ft | 370 kts | 263° |
| 2026-04-24 22:46 | 34.10803 | -116.26757 | 28477 ft | 367 kts | 263° |
| 2026-04-24 22:47 | 34.10498 | -116.29801 | 27990 ft | 364 kts | 262° |
| 2026-04-24 22:47 | 34.10181 | -116.32821 | 27521 ft | 361 kts | 262° |
| 2026-04-24 22:47 | 34.09856 | -116.35811 | 27075 ft | 358 kts | 262° |
| 2026-04-24 22:47 | 34.09539 | -116.38748 | 26624 ft | 357 kts | 262° |
| 2026-04-24 22:48 | 34.09222 | -116.41702 | 26178 ft | 354 kts | 262° |
| 2026-04-24 22:48 | 34.08909 | -116.44633 | 25736 ft | 351 kts | 262° |
| 2026-04-24 22:48 | 34.08598 | -116.47548 | 25302 ft | 350 kts | 263° |
| 2026-04-24 22:48 | 34.08287 | -116.50449 | 24877 ft | 347 kts | 262° |
| 2026-04-24 22:49 | 34.07979 | -116.53325 | 24466 ft | 345 kts | 263° |
| 2026-04-24 22:49 | 34.07672 | -116.56184 | 24051 ft | 343 kts | 263° |
| 2026-04-24 22:49 | 34.07381 | -116.59024 | 23648 ft | 341 kts | 263° |
| 2026-04-24 22:49 | 34.07114 | -116.61861 | 23259 ft | 338 kts | 264° |
| 2026-04-24 22:50 | 34.06852 | -116.64682 | 22875 ft | 338 kts | 264° |
| 2026-04-24 22:50 | 34.06587 | -116.67498 | 22455 ft | 337 kts | 264° |
| 2026-04-24 22:50 | 34.06321 | -116.70307 | 22053 ft | 337 kts | 263° |
| 2026-04-24 22:50 | 34.06059 | -116.73113 | 21640 ft | 336 kts | 263° |
| 2026-04-24 22:51 | 34.05798 | -116.75903 | 21246 ft | 334 kts | 263° |
| 2026-04-24 22:51 | 34.05537 | -116.78675 | 20837 ft | 331 kts | 263° |
| 2026-04-24 22:51 | 34.05282 | -116.81425 | 20447 ft | 330 kts | 263° |
| 2026-04-24 22:51 | 34.05033 | -116.84172 | 20071 ft | 330 kts | 263° |
| 2026-04-24 22:52 | 34.04773 | -116.86916 | 19713 ft | 328 kts | 263° |
| 2026-04-24 22:52 | 34.04465 | -116.89638 | 19431 ft | 328 kts | 261° |
| 2026-04-24 22:52 | 34.04114 | -116.92350 | 19157 ft | 328 kts | 261° |
| 2026-04-24 22:52 | 34.03753 | -116.95060 | 18868 ft | 327 kts | 261° |
| 2026-04-24 22:53 | 34.03402 | -116.97766 | 18602 ft | 326 kts | 261° |
| 2026-04-24 22:53 | 34.03063 | -117.00466 | 18330 ft | 325 kts | 262° |
| 2026-04-24 22:53 | 34.02804 | -117.03174 | 18037 ft | 325 kts | 263° |
| 2026-04-24 22:53 | 34.02531 | -117.05875 | 17726 ft | 324 kts | 262° |
| 2026-04-24 22:54 | 34.02209 | -117.08559 | 17409 ft | 323 kts | 261° |
| 2026-04-24 22:54 | 34.01868 | -117.11233 | 17095 ft | 322 kts | 261° |
| 2026-04-24 22:54 | 34.01531 | -117.13903 | 16782 ft | 322 kts | 261° |
| 2026-04-24 22:54 | 34.01201 | -117.16564 | 16487 ft | 321 kts | 261° |
| 2026-04-24 22:55 | 34.00872 | -117.19216 | 16231 ft | 319 kts | 261° |
| 2026-04-24 22:55 | 34.00542 | -117.21863 | 15877 ft | 319 kts | 261° |
| 2026-04-24 22:55 | 34.00213 | -117.24501 | 15526 ft | 318 kts | 261° |
| 2026-04-24 22:55 | 33.99881 | -117.27131 | 15197 ft | 317 kts | 261° |
| 2026-04-24 22:56 | 33.99553 | -117.29760 | 14866 ft | 317 kts | 261° |
| 2026-04-24 22:56 | 33.99242 | -117.32381 | 14519 ft | 315 kts | 261° |
| 2026-04-24 22:56 | 33.98938 | -117.34995 | 14196 ft | 314 kts | 261° |
| 2026-04-24 22:56 | 33.98634 | -117.37591 | 13855 ft | 311 kts | 261° |
| 2026-04-24 22:57 | 33.98334 | -117.40138 | 13376 ft | 304 kts | 261° |
| 2026-04-24 22:57 | 33.98041 | -117.42609 | 12921 ft | 300 kts | 261° |
| 2026-04-24 22:57 | 33.97746 | -117.45126 | 12460 ft | 299 kts | 261° |
| 2026-04-24 22:57 | 33.97527 | -117.47570 | 12170 ft | 297 kts | 269° |
| 2026-04-24 22:58 | 33.97745 | -117.50044 | 12030 ft | 298 kts | 278° |
| 2026-04-24 22:58 | 33.98216 | -117.52487 | 11883 ft | 300 kts | 282° |
| 2026-04-24 22:58 | 33.98777 | -117.54856 | 11606 ft | 287 kts | 284° |
| 2026-04-24 22:58 | 33.99358 | -117.57117 | 11317 ft | 280 kts | 285° |
| 2026-04-24 22:59 | 33.99950 | -117.59357 | 11028 ft | 281 kts | 285° |
| 2026-04-24 22:59 | 34.00547 | -117.61595 | 10732 ft | 281 kts | 285° |
| 2026-04-24 22:59 | 34.01744 | -117.66064 | 10199 ft | 277 kts | 285° |
| 2026-04-24 23:00 | 34.02334 | -117.68268 | 10056 ft | 275 kts | 283° |
| 2026-04-24 23:00 | 34.02606 | -117.70539 | 10015 ft | 274 kts | 270° |
| 2026-04-24 23:00 | 34.02552 | -117.72852 | 9846 ft | 278 kts | 265° |
| 2026-04-24 23:00 | 34.02369 | -117.75160 | 9525 ft | 270 kts | 263° |
| 2026-04-24 23:01 | 34.02149 | -117.77313 | 9147 ft | 248 kts | 262° |
| 2026-04-24 23:01 | 34.01930 | -117.79272 | 9000 ft | 227 kts | 261° |
| 2026-04-24 23:01 | 34.01720 | -117.81152 | 8576 ft | 225 kts | 261° |
| 2026-04-24 23:01 | 34.01506 | -117.82997 | 8256 ft | 219 kts | 261° |
| 2026-04-24 23:02 | 34.01259 | -117.84804 | 8152 ft | 221 kts | 259° |
| 2026-04-24 23:02 | 34.00988 | -117.86656 | 7927 ft | 226 kts | 259° |
| 2026-04-24 23:02 | 34.00708 | -117.88521 | 7515 ft | 226 kts | 259° |
| 2026-04-24 23:02 | 34.00426 | -117.90367 | 7231 ft | 223 kts | 259° |
| 2026-04-24 23:03 | 34.00151 | -117.92202 | 7070 ft | 222 kts | 261° |
| 2026-04-24 23:03 | 33.99940 | -117.94040 | 7008 ft | 219 kts | 263° |
| 2026-04-24 23:03 | 33.99770 | -117.95759 | 6963 ft | 192 kts | 263° |
| 2026-04-24 23:03 | 33.99617 | -117.97333 | 6724 ft | 188 kts | 263° |
| 2026-04-24 23:04 | 33.99459 | -117.98873 | 6416 ft | 189 kts | 263° |
| 2026-04-24 23:04 | 33.99292 | -118.00467 | 6167 ft | 189 kts | 263° |
| 2026-04-24 23:04 | 33.99122 | -118.02092 | 6082 ft | 213 kts | 263° |
| 2026-04-24 23:04 | 33.98931 | -118.03927 | 5998 ft | 231 kts | 263° |
| 2026-04-24 23:05 | 33.98727 | -118.05900 | 5567 ft | 235 kts | 263° |
| 2026-04-24 23:05 | 33.98533 | -118.07807 | 5284 ft | 231 kts | 262° |
| 2026-04-24 23:05 | 33.98333 | -118.09737 | 5295 ft | 232 kts | 262° |
| 2026-04-24 23:05 | 33.98134 | -118.11678 | 5264 ft | 236 kts | 262° |
| 2026-04-24 23:06 | 33.97934 | -118.13642 | 4906 ft | 235 kts | 262° |
| 2026-04-24 23:06 | 33.97738 | -118.15568 | 4634 ft | 227 kts | 262° |
| 2026-04-24 23:06 | 33.97542 | -118.17458 | 4631 ft | 232 kts | 262° |
| 2026-04-24 23:06 | 33.97342 | -118.19401 | 4177 ft | 234 kts | 262° |
| 2026-04-24 23:07 | 33.97142 | -118.21337 | 3641 ft | 232 kts | 262° |
| 2026-04-24 23:07 | 33.96945 | -118.23256 | 3112 ft | 230 kts | 261° |
| 2026-04-24 23:07 | 33.96755 | -118.25136 | 2592 ft | 220 kts | 259° |
| 2026-04-24 23:07 | 33.96577 | -118.26871 | 2107 ft | 198 kts | 260° |
| 2026-04-24 23:08 | 33.96426 | -118.28393 | 2014 ft | 171 kts | 258° |
| 2026-04-24 23:08 | 33.96285 | -118.29770 | 2027 ft | 167 kts | 259° |
| 2026-04-24 23:08 | 33.96152 | -118.31168 | 1744 ft | 164 kts | 259° |
| 2026-04-24 23:08 | 33.96041 | -118.32542 | 1303 ft | 162 kts | 259° |
| 2026-04-24 23:09 | 33.95927 | -118.33855 | 1090 ft | 154 kts | 258° |
| 2026-04-24 23:09 | 33.95756 | -118.35153 | 1101 ft | 158 kts | 258° |
| 2026-04-24 23:09 | 33.95600 | -118.36493 | 875 ft | 163 kts | 261° |
| 2026-04-24 23:09 | 33.95471 | -118.37824 | 578 ft | 157 kts | 262° |
| 2026-04-24 23:10 | 33.95322 | -118.39105 | 326 ft | 145 kts | 261° |
| 2026-04-24 23:10 | 33.95203 | -118.40263 | 125 ft | 140 kts | 262° |
| 2026-04-24 23:10 | 33.95105 | -118.41299 | 99 ft | 101 kts | 262° |
| 2026-04-24 23:10 | 33.95029 | -118.41968 | 98 ft | 64 kts | 260° |
| 2026-04-24 23:11 | 33.94983 | -118.42391 | 98 ft | 40 kts | 257° |
| 2026-04-24 23:11 | 33.94895 | -118.42620 | 101 ft | 19 kts | 232° |
| 2026-04-24 23:11 | 33.94818 | -118.42715 | 102 ft | 15 kts | 218° |
| 2026-04-24 23:11 | 33.94728 | -118.42772 | 104 ft | 15 kts | 193° |
| 2026-04-24 23:12 | 33.94622 | -118.42776 | 101 ft | 12 kts | 175° |
| 2026-04-24 23:12 | 33.94569 | -118.42752 | 101 ft | 8 kts | 127° |
| 2026-04-24 23:12 | 33.94563 | -118.42667 | 98 ft | 12 kts | 85° |
| 2026-04-24 23:12 | 33.94575 | -118.42548 | 101 ft | 16 kts | 84° |
| 2026-04-24 23:13 | 33.94589 | -118.42400 | 101 ft | 20 kts | 82° |
| 2026-04-24 23:13 | 33.94606 | -118.42221 | 98 ft | 23 kts | 84° |
| 2026-04-24 23:13 | 33.94624 | -118.42036 | 98 ft | 19 kts | 85° |
| 2026-04-24 23:13 | 33.94629 | -118.41891 | 101 ft | 18 kts | 86° |
| 2026-04-24 23:14 | 33.94645 | -118.41732 | 98 ft | 20 kts | 82° |
| 2026-04-24 23:14 | 33.94662 | -118.41556 | 99 ft | 23 kts | 83° |
| 2026-04-24 23:14 | 33.94683 | -118.41353 | 99 ft | 25 kts | 81° |
| 2026-04-24 23:14 | 33.94718 | -118.41168 | 101 ft | 21 kts | 72° |
| 2026-04-24 23:15 | 33.94737 | -118.41041 | 98 ft | 15 kts | 83° |
| 2026-04-24 23:15 | 33.94737 | -118.40946 | 98 ft | 8 kts | 110° |
| 2026-04-24 23:15 | 33.94684 | -118.40904 | 100 ft | 11 kts | 175° |
| 2026-04-24 23:15 | 33.94609 | -118.40900 | 99 ft | 6 kts | 186° |
| 2026-04-24 23:16 | 33.94571 | -118.40916 | 99 ft | 7 kts | 210° |
| 2026-04-24 23:16 | 33.94554 | -118.40933 | 101 ft | 1 kts | 226° |
| 2026-04-24 23:16 | 33.94550 | -118.40946 | 98 ft | 2 kts | 250° |
| 2026-04-24 23:16 | 33.94545 | -118.40967 | 99 ft | 2 kts | 259° |
| 2026-04-24 23:17 | 33.94541 | -118.40999 | 100 ft | 3 kts | 261° |
| 2026-04-24 23:17 | 33.94541 | -118.41005 | 100 ft | 0 kts | 261° |